createdAt,value
2022-07-31T00:03:45.297Z,79
2022-07-31T00:09:53.755Z,80
2022-07-31T00:14:54.475Z,80
2022-07-31T00:20:30.061Z,79
2022-07-31T00:26:05.063Z,79
2022-07-31T00:31:39.515Z,79
2022-07-31T00:37:17.683Z,79
2022-07-31T00:42:49.499Z,79
2022-07-31T00:48:24.662Z,79
2022-07-31T00:54:00.566Z,79
2022-07-31T00:59:34.582Z,79
2022-07-31T01:05:09.622Z,79
2022-07-31T01:10:44.544Z,79
2022-07-31T01:16:19.601Z,79
2022-07-31T01:21:54.613Z,79
2022-07-31T01:27:29.612Z,79
2022-07-31T01:33:04.753Z,79
2022-07-31T01:38:43.863Z,79
2022-07-31T01:44:14.762Z,79
2022-07-31T01:49:49.825Z,79
2022-07-31T01:55:24.812Z,79
2022-07-31T02:00:59.750Z,79
2022-07-31T02:06:34.816Z,79
2022-07-31T02:12:10.581Z,79
2022-07-31T02:17:44.694Z,79
2022-07-31T02:23:19.682Z,79
2022-07-31T02:28:54.694Z,80
2022-07-31T02:34:30.309Z,80
2022-07-31T02:40:04.773Z,80
2022-07-31T02:45:39.788Z,81
2022-07-31T02:51:14.723Z,81
2022-07-31T02:56:49.783Z,81
2022-07-31T03:03:31.864Z,82
2022-07-31T03:09:06.870Z,82
2022-07-31T03:14:41.928Z,82
2022-07-31T03:20:27.024Z,83
2022-07-31T03:25:51.823Z,83
2022-07-31T03:31:27.001Z,84
2022-07-31T03:37:01.881Z,85
2022-07-31T03:42:36.935Z,85
2022-07-31T03:48:11.926Z,85
2022-07-31T03:53:47.006Z,84
2022-07-31T03:59:21.993Z,84
2022-07-31T04:04:57.082Z,83
2022-07-31T04:10:31.987Z,83
2022-07-31T04:16:06.964Z,83
2022-07-31T04:21:41.914Z,83
2022-07-31T04:27:16.957Z,83
2022-07-31T04:32:51.991Z,83
2022-07-31T04:38:26.869Z,83
2022-07-31T04:44:01.940Z,82
2022-07-31T04:49:37.009Z,82
2022-07-31T04:55:11.373Z,82
2022-07-31T05:00:46.431Z,82
2022-07-31T05:06:21.906Z,81
2022-07-31T05:11:56.483Z,80
2022-07-31T05:18:39.065Z,80
2022-07-31T05:24:13.513Z,79
2022-07-31T05:29:48.623Z,79
2022-07-31T05:35:24.637Z,79
2022-07-31T05:40:58.691Z,79
2022-07-31T05:46:33.685Z,79
2022-07-31T05:52:08.656Z,79
2022-07-31T05:57:43.610Z,78
2022-07-31T06:11:07.880Z,76
2022-07-31T06:16:43.986Z,76
2022-07-31T06:22:18.055Z,76
2022-07-31T06:27:59.267Z,76
2022-07-31T06:33:37.636Z,75
2022-07-31T06:39:02.359Z,74
2022-07-31T06:44:45.847Z,75
2022-07-31T06:50:12.423Z,75
2022-07-31T06:55:47.404Z,74
2022-07-31T07:01:22.411Z,73
2022-07-31T07:06:57.413Z,73
2022-07-31T07:12:32.392Z,72
2022-07-31T07:18:07.412Z,74
2022-07-31T07:23:42.413Z,72
2022-07-31T07:29:17.486Z,73
2022-07-31T07:34:59.306Z,73
2022-07-31T07:40:27.390Z,71
2022-07-31T07:46:02.433Z,71
2022-07-31T07:51:37.452Z,71
2022-07-31T07:57:12.483Z,73
2022-07-31T08:03:54.625Z,73
2022-07-31T08:09:29.676Z,72
2022-07-31T08:15:05.271Z,70
2022-07-31T08:22:53.757Z,69
2022-07-31T08:28:28.791Z,69
2022-07-31T08:34:03.246Z,68
2022-07-31T08:39:38.296Z,68
2022-07-31T08:45:13.310Z,67
2022-07-31T08:50:53.390Z,66
2022-07-31T08:56:23.332Z,67
2022-07-31T09:01:59.423Z,66
2022-07-31T09:07:33.354Z,65
2022-07-31T09:13:08.417Z,64
2022-07-31T09:18:43.346Z,65
2022-07-31T09:26:32.575Z,65
2022-07-31T09:32:07.571Z,64
2022-07-31T09:37:42.608Z,64
2022-07-31T09:43:18.719Z,63
2022-07-31T09:48:56.539Z,64
2022-07-31T09:54:27.670Z,63
2022-07-31T10:00:02.631Z,62
2022-07-31T10:05:37.585Z,62
2022-07-31T10:11:16.726Z,62
2022-07-31T10:16:47.636Z,62
2022-07-31T10:22:22.661Z,61
2022-07-31T10:29:05.039Z,61
2022-07-31T10:34:39.231Z,61
2022-07-31T10:40:14.215Z,61
2022-07-31T10:45:49.256Z,61
2022-07-31T10:51:24.324Z,61
2022-07-31T10:56:59.318Z,61
2022-07-31T11:02:34.238Z,61
2022-07-31T11:08:09.306Z,61
2022-07-31T11:13:44.313Z,60
2022-07-31T11:19:19.255Z,60
2022-07-31T11:24:54.271Z,60
2022-07-31T11:30:29.366Z,60
2022-07-31T11:36:04.407Z,59
2022-07-31T11:41:44.155Z,59
2022-07-31T11:48:10.975Z,59
2022-07-31T11:52:49.401Z,59
2022-07-31T11:58:24.454Z,59
2022-07-31T12:04:07.531Z,59
2022-07-31T12:10:02.690Z,60
2022-07-31T12:15:09.499Z,60
2022-07-31T12:20:44.353Z,61
2022-07-31T12:26:19.433Z,61
2022-07-31T12:31:54.362Z,60
2022-07-31T12:37:29.469Z,61
2022-07-31T12:43:04.463Z,61
2022-07-31T12:48:44.393Z,60
2022-07-31T12:54:14.436Z,60
2022-07-31T12:59:49.520Z,60
2022-07-31T13:05:24.414Z,60
2022-07-31T13:10:59.523Z,60
2022-07-31T13:16:34.484Z,60
2022-07-31T13:22:09.591Z,61
2022-07-31T13:27:44.595Z,61
2022-07-31T13:33:19.600Z,61
2022-07-31T13:40:01.812Z,61
2022-07-31T13:45:36.755Z,61
2022-07-31T13:52:18.235Z,61
2022-07-31T13:57:53.386Z,61
2022-07-31T14:04:38.407Z,61
2022-07-31T14:10:10.333Z,61
2022-07-31T14:15:45.331Z,61
2022-07-31T14:21:20.290Z,61
2022-07-31T14:26:55.448Z,62
2022-07-31T14:33:37.519Z,63
2022-07-31T14:39:12.419Z,63
2022-07-31T14:44:47.484Z,63
2022-07-31T14:50:22.505Z,63
2022-07-31T14:56:03.491Z,63
2022-07-31T15:01:32.494Z,63
2022-07-31T15:07:33.546Z,63
2022-07-31T15:12:42.539Z,62
2022-07-31T15:18:17.574Z,62
2022-07-31T15:23:52.567Z,63
2022-07-31T15:30:03.737Z,63
2022-07-31T15:35:02.584Z,63
2022-07-31T15:40:37.598Z,62
2022-07-31T15:47:19.089Z,62
2022-07-31T15:52:54.161Z,63
2022-07-31T15:58:29.136Z,63
2022-07-31T16:04:04.204Z,63
2022-07-31T16:10:01.002Z,63
2022-07-31T16:15:14.135Z,63
2022-07-31T16:20:54.138Z,64
2022-07-31T16:26:24.245Z,64
2022-07-31T16:32:01.359Z,64
2022-07-31T16:37:50.529Z,63
2022-07-31T16:43:50.996Z,63
2022-07-31T16:48:44.261Z,64
2022-07-31T16:54:19.288Z,64
2022-07-31T16:59:57.775Z,64
2022-07-31T17:05:29.193Z,64
2022-07-31T17:11:04.208Z,65
2022-07-31T17:16:43.409Z,64
2022-07-31T17:22:16.123Z,64
2022-07-31T17:27:49.344Z,64
2022-07-31T17:33:54.572Z,65
2022-07-31T17:38:59.313Z,65
2022-07-31T17:44:34.328Z,65
2022-07-31T17:50:09.333Z,65
2022-07-31T17:55:44.503Z,65
2022-07-31T18:01:19.457Z,66
2022-07-31T18:06:54.909Z,66
2022-07-31T18:12:29.375Z,67
2022-07-31T18:18:04.400Z,66
2022-07-31T18:23:43.541Z,66
2022-07-31T18:29:14.478Z,66
2022-07-31T18:34:58.559Z,67
2022-07-31T18:41:31.429Z,67
2022-07-31T18:47:06.310Z,67
2022-07-31T18:52:41.149Z,67
2022-07-31T18:58:16.254Z,66
2022-07-31T19:03:51.225Z,67
2022-07-31T19:09:26.262Z,67
2022-07-31T19:15:01.239Z,67
2022-07-31T19:20:46.503Z,66
2022-07-31T19:26:12.915Z,66
2022-07-31T19:31:46.316Z,67
2022-07-31T19:37:21.194Z,67
2022-07-31T19:42:56.290Z,67
2022-07-31T19:48:31.339Z,67
2022-07-31T19:54:06.287Z,67
2022-07-31T19:59:41.219Z,67
2022-07-31T20:05:16.316Z,68
2022-07-31T20:10:51.610Z,68
2022-07-31T20:16:26.395Z,69
2022-07-31T20:22:01.380Z,69
2022-07-31T20:27:36.292Z,70
2022-07-31T20:33:13.275Z,70
2022-07-31T20:38:46.367Z,70
2022-07-31T20:45:27.989Z,71
2022-07-31T20:51:04.969Z,71
2022-07-31T20:56:37.977Z,72
2022-07-31T21:02:14.067Z,72
2022-07-31T21:07:47.985Z,72
2022-07-31T21:13:22.984Z,73
2022-07-31T21:18:58.102Z,73
2022-07-31T21:24:32.924Z,73
2022-07-31T21:30:08.064Z,74
2022-07-31T21:35:43.011Z,74
2022-07-31T21:41:18.178Z,74
2022-07-31T21:46:53.127Z,75
2022-07-31T21:52:28.213Z,75
2022-07-31T21:58:03.226Z,75
2022-07-31T22:03:38.043Z,75
2022-07-31T22:09:13.090Z,75
2022-07-31T22:14:48.432Z,76
2022-07-31T22:20:23.306Z,76
2022-07-31T22:25:58.084Z,76
2022-07-31T22:31:33.057Z,77
2022-07-31T22:37:08.222Z,77
2022-07-31T22:42:43.129Z,77
2022-07-31T22:49:25.262Z,77
2022-07-31T22:55:00.215Z,77
2022-07-31T23:00:35.162Z,77
2022-07-31T23:06:29.899Z,77
2022-07-31T23:12:57.905Z,77
2022-07-31T23:18:27.395Z,78
2022-07-31T23:24:02.356Z,78
2022-07-31T23:30:43.948Z,78
2022-07-31T23:36:22.561Z,78
2022-07-31T23:41:53.967Z,79
2022-07-31T23:47:44.778Z,79
2022-07-31T23:53:03.944Z,79
2022-07-31T23:58:39.015Z,80
